KCOU/COU METAR and TAF weather

Enter ICAO airport designator
Station Type Date Time Source
KCOU METAR 2023/09/28 21:54 UTC NOAA

KCOU 282154Z 11005KT 10SM CLR 28/18 A2997 RMK AO2 SLP140 T02780178


Station Type Date Time Source
KCOU Decoded METAR 2023/09/28 21:54 UTC NOAA

COLUMBIA REGIONAL AIRPORT, MO, United States (KCOU) 38-49N 092-13W 271M
Sep 28, 2023 - 05:54 PM EDT / 2023.09.28 2154 UTC
Wind: from the ESE (110 degrees) at 6 MPH (5 KT):0
Visibility: 10 mile(s):0
Sky conditions: clear
Temperature: 82.0 F (27.8 C)
Dew Point: 64.0 F (17.8 C)
Relative Humidity: 54%
Pressure (altimeter): 29.97 in. Hg (1014 hPa)
ob: KCOU 282154Z 11005KT 10SM CLR 28/18 A2997 RMK AO2 SLP140 T02780178
cycle: 22

Station Type Date Time Source
KCOU TAF 2023/09/28 18:27 UTC NOAA

TAF KCOU 281725Z 2818/2918 12007KT P6SM FEW250

Example: see airport list